createdAt,value
2022-10-17T00:02:18.217Z,101398.28
2022-10-17T00:07:20.957Z,101397.13
2022-10-17T00:12:23.752Z,101408.56
2022-10-17T00:17:26.750Z,101398.34
2022-10-17T00:22:29.498Z,101395.94
2022-10-17T00:27:35.613Z,101406.00
2022-10-17T00:32:38.442Z,101408.03
2022-10-17T00:37:41.276Z,101398.69
2022-10-17T00:42:44.036Z,101400.03
2022-10-17T00:47:51.229Z,101402.09
2022-10-17T00:52:55.383Z,101400.09
2022-10-17T00:58:00.384Z,101402.16
2022-10-17T01:03:03.792Z,101397.50
2022-10-17T01:08:07.439Z,101394.25
2022-10-17T01:13:22.400Z,101398.00
2022-10-17T01:18:32.455Z,101392.00
2022-10-17T01:23:57.072Z,101400.31
2022-10-17T01:29:15.035Z,101393.72
2022-10-17T01:34:50.167Z,101400.22
2022-10-17T01:40:16.278Z,101406.88
2022-10-17T01:45:28.345Z,101403.06
2022-10-17T01:50:38.000Z,101410.41
2022-10-17T01:55:44.327Z,101409.81
2022-10-17T02:00:48.435Z,101412.69
2022-10-17T02:05:51.667Z,101411.88
2022-10-17T02:11:03.568Z,101412.25
2022-10-17T02:16:30.871Z,101415.97
2022-10-17T02:21:39.228Z,101423.56
2022-10-17T02:26:50.180Z,101424.19
2022-10-17T02:32:05.829Z,101427.78
2022-10-17T02:37:10.620Z,101420.91
2022-10-17T02:42:14.174Z,101425.25
2022-10-17T02:47:37.032Z,101424.53
2022-10-17T02:52:42.620Z,101435.25
2022-10-17T02:57:52.858Z,101432.25
2022-10-17T03:02:55.904Z,101433.59
2022-10-17T03:07:58.681Z,101448.84
2022-10-17T03:13:01.454Z,101445.59
2022-10-17T03:18:04.336Z,101451.00
2022-10-17T03:23:07.063Z,101456.31
2022-10-17T03:28:11.640Z,101467.88
2022-10-17T03:33:14.253Z,101471.47
2022-10-17T03:38:17.191Z,101470.88
2022-10-17T03:43:19.800Z,101478.81
2022-10-17T03:48:22.468Z,101480.75
2022-10-17T03:53:25.224Z,101487.22
2022-10-17T03:58:28.899Z,101501.41
2022-10-17T04:03:32.402Z,101489.38
2022-10-17T04:08:35.362Z,101499.13
2022-10-17T04:13:38.225Z,101501.28
2022-10-17T04:18:41.618Z,101501.53
2022-10-17T04:23:44.224Z,101498.03
2022-10-17T04:28:47.001Z,101511.38
2022-10-17T04:33:50.426Z,101503.69
2022-10-17T04:38:53.258Z,101510.78
2022-10-17T04:43:56.043Z,101515.22
2022-10-17T04:48:58.947Z,101515.69
2022-10-17T04:54:01.659Z,101517.38
2022-10-17T04:59:04.410Z,101527.72
2022-10-17T05:04:07.295Z,101522.66
2022-10-17T05:09:10.090Z,101535.88
2022-10-17T05:14:12.789Z,101548.06
2022-10-17T05:19:15.887Z,101548.91
2022-10-17T05:24:18.519Z,101552.38
2022-10-17T05:29:21.542Z,101562.72
2022-10-17T05:34:25.191Z,101564.53
2022-10-17T05:39:28.099Z,101572.25
2022-10-17T05:44:30.897Z,101575.59
2022-10-17T05:49:45.049Z,101581.75
2022-10-17T05:54:52.282Z,101599.59
2022-10-17T05:59:55.810Z,101591.78
2022-10-17T06:04:59.965Z,101598.78
2022-10-17T06:10:10.279Z,101605.22
2022-10-17T06:15:17.177Z,101618.75
2022-10-17T06:20:20.234Z,101625.75
2022-10-17T06:25:23.484Z,101626.09
2022-10-17T06:30:48.362Z,101637.13
2022-10-17T06:35:52.972Z,101630.59
2022-10-17T06:41:02.837Z,101645.91
2022-10-17T06:46:06.582Z,101645.94
2022-10-17T06:51:11.376Z,101644.88
2022-10-17T06:56:14.372Z,101656.41
2022-10-17T07:01:17.377Z,101653.59
2022-10-17T07:06:20.483Z,101667.56
2022-10-17T07:11:23.752Z,101666.94
2022-10-17T07:16:26.688Z,101673.56
2022-10-17T07:21:29.650Z,101681.75
2022-10-17T07:26:32.761Z,101671.38
2022-10-17T07:31:36.914Z,101662.06
2022-10-17T07:36:39.761Z,101660.88
2022-10-17T07:41:42.694Z,101669.91
2022-10-17T07:46:45.511Z,101669.78
2022-10-17T07:51:48.964Z,101668.81
2022-10-17T07:56:51.744Z,101676.00
2022-10-17T08:01:57.816Z,101674.09
2022-10-17T08:07:18.338Z,101683.25
2022-10-17T08:12:23.126Z,101678.56
2022-10-17T08:17:26.204Z,101677.56
2022-10-17T08:22:29.044Z,101681.59
2022-10-17T08:27:33.674Z,101684.50
2022-10-17T08:32:36.520Z,101681.41
2022-10-17T08:37:39.442Z,101673.69
2022-10-17T08:43:28.072Z,101683.91
2022-10-17T08:48:37.952Z,101673.50
2022-10-17T08:53:53.994Z,101684.09
2022-10-17T08:58:56.928Z,101687.09
2022-10-17T09:03:59.906Z,101685.38
2022-10-17T09:09:21.119Z,101683.84
2022-10-17T09:14:49.017Z,101679.31
2022-10-17T09:20:15.227Z,101681.66
2022-10-17T09:25:20.339Z,101672.03
2022-10-17T09:30:46.261Z,101678.03
2022-10-17T09:35:50.100Z,101670.56
2022-10-17T09:40:59.298Z,101663.91
2022-10-17T09:46:02.531Z,101659.81
2022-10-17T09:51:21.707Z,101665.25
2022-10-17T09:56:28.139Z,101664.28
2022-10-17T10:01:31.925Z,101658.03
2022-10-17T10:06:35.043Z,101655.31
2022-10-17T10:11:57.899Z,101654.69
2022-10-17T10:17:06.127Z,101644.78
2022-10-17T10:22:19.930Z,101641.84
2022-10-17T10:27:22.865Z,101639.41
2022-10-17T10:32:28.739Z,101632.25
2022-10-17T10:37:41.357Z,101633.09
2022-10-17T10:42:55.021Z,101622.44
2022-10-17T10:48:02.769Z,101615.94
2022-10-17T10:53:34.226Z,101619.94
2022-10-17T10:59:08.676Z,101609.63
2022-10-17T11:04:42.476Z,101609.19
2022-10-17T11:09:57.070Z,101597.75
2022-10-17T11:15:14.579Z,101595.84
2022-10-17T11:20:39.256Z,101594.69
2022-10-17T11:25:42.281Z,101590.13
2022-10-17T11:31:03.330Z,101581.72
2022-10-17T11:36:09.978Z,101582.22
2022-10-17T11:41:17.418Z,101573.03
2022-10-17T11:46:26.914Z,101565.25
2022-10-17T12:02:32.292Z,101568.84
2022-10-17T12:07:46.650Z,101568.16
2022-10-17T12:12:50.102Z,101567.78
2022-10-17T12:18:04.031Z,101559.22
2022-10-17T12:23:12.939Z,101558.72
2022-10-17T12:28:27.639Z,101556.16
2022-10-17T12:33:46.782Z,101557.50
2022-10-17T12:39:13.475Z,101556.00
2022-10-17T12:44:22.362Z,101548.00
2022-10-17T12:49:40.482Z,101544.22
2022-10-17T12:55:12.651Z,101546.88
2022-10-17T13:00:25.619Z,101545.16
2022-10-17T13:05:31.857Z,101545.34
2022-10-17T13:10:40.660Z,101539.25
2022-10-17T13:15:47.857Z,101537.53
2022-10-17T13:21:13.990Z,101537.28
2022-10-17T13:26:27.849Z,101530.81
2022-10-17T13:31:36.586Z,101530.44
2022-10-17T13:36:39.396Z,101526.00
2022-10-17T13:41:42.281Z,101524.34
2022-10-17T13:46:45.677Z,101528.63
2022-10-17T13:51:51.472Z,101523.44
2022-10-17T13:56:58.154Z,101517.44
2022-10-17T14:02:02.053Z,101520.13
2022-10-17T14:07:06.000Z,101513.69
2022-10-17T14:12:12.817Z,101510.19
2022-10-17T14:17:27.650Z,101500.78
2022-10-17T14:22:35.652Z,101503.66
2022-10-17T14:27:55.576Z,101506.38
2022-10-17T14:33:00.306Z,101508.81
2022-10-17T14:38:05.369Z,101506.88
2022-10-17T14:43:19.755Z,101514.91
2022-10-17T14:48:24.252Z,101502.16
2022-10-17T14:53:28.513Z,101499.31
2022-10-17T14:58:33.456Z,101504.16
2022-10-17T15:03:36.655Z,101507.63
2022-10-17T15:08:39.493Z,101505.22
2022-10-17T15:13:45.598Z,101511.28
2022-10-17T15:18:49.218Z,101510.63
2022-10-17T15:23:52.164Z,101515.19
2022-10-17T15:28:55.089Z,101524.50
2022-10-17T15:33:57.865Z,101529.22
2022-10-17T15:39:02.174Z,101532.72
2022-10-17T15:44:05.231Z,101541.88
2022-10-17T15:49:12.958Z,101544.84
2022-10-17T15:54:15.779Z,101546.78
2022-10-17T15:59:21.656Z,101552.69
2022-10-17T16:04:27.117Z,101560.78
2022-10-17T16:09:30.087Z,101556.03
2022-10-17T16:14:34.319Z,101558.38
2022-10-17T16:19:37.633Z,101556.81
2022-10-17T16:24:40.420Z,101573.00
2022-10-17T16:29:43.123Z,101570.06
2022-10-17T16:34:46.091Z,101575.97
2022-10-17T16:39:52.611Z,101578.34
2022-10-17T16:44:55.959Z,101592.41
2022-10-17T16:49:58.978Z,101588.28
2022-10-17T16:55:01.839Z,101602.31
2022-10-17T17:00:06.967Z,101596.44
2022-10-17T17:05:12.302Z,101599.19
2022-10-17T17:10:15.240Z,101606.59
2022-10-17T17:15:18.020Z,101616.44
2022-10-17T17:20:20.832Z,101609.13
2022-10-17T17:25:23.691Z,101618.31
2022-10-17T17:30:26.495Z,101613.53
2022-10-17T17:35:29.432Z,101614.13
2022-10-17T17:40:34.555Z,101608.69
2022-10-17T17:45:37.484Z,101607.19
2022-10-17T17:50:41.584Z,101625.03
2022-10-17T17:55:45.019Z,101623.41
2022-10-17T18:00:47.641Z,101627.63
2022-10-17T18:05:50.433Z,101622.31
2022-10-17T18:10:57.480Z,101618.97
2022-10-17T18:16:01.267Z,101611.00
2022-10-17T18:21:04.523Z,101619.69
2022-10-17T18:26:08.036Z,101609.56
2022-10-17T18:31:15.306Z,101610.00
2022-10-17T18:36:18.179Z,101617.44
2022-10-17T18:41:23.287Z,101617.13
2022-10-17T18:46:29.002Z,101617.56
2022-10-17T18:51:31.899Z,101604.81
2022-10-17T18:56:34.684Z,101613.91
2022-10-17T19:01:37.547Z,101614.22
2022-10-17T19:06:40.706Z,101618.97
2022-10-17T19:11:43.602Z,101615.59
2022-10-17T19:16:49.039Z,101616.84
2022-10-17T19:21:52.478Z,101612.06
2022-10-17T19:26:57.608Z,101607.31
2022-10-17T19:32:00.871Z,101611.34
2022-10-17T19:37:03.835Z,101617.38
2022-10-17T19:42:07.199Z,101612.59
2022-10-17T19:47:10.223Z,101621.13
2022-10-17T19:52:13.226Z,101604.44
2022-10-17T19:57:16.122Z,101610.28
2022-10-17T20:02:19.004Z,101617.25
2022-10-17T20:07:21.876Z,101616.94
2022-10-17T20:12:24.671Z,101615.66
2022-10-17T20:17:27.559Z,101626.13
2022-10-17T20:22:32.638Z,101626.66
2022-10-17T20:27:35.600Z,101621.72
2022-10-17T20:32:40.033Z,101620.31
2022-10-17T20:37:42.979Z,101624.06
2022-10-17T20:42:45.787Z,101628.81
2022-10-17T20:47:53.971Z,101620.25
2022-10-17T20:53:17.696Z,101622.22
2022-10-17T20:58:20.041Z,101620.66
2022-10-17T21:03:23.155Z,101621.97
2022-10-17T21:08:25.977Z,101624.31
2022-10-17T21:13:28.702Z,101625.81
2022-10-17T21:18:31.418Z,101622.00
2022-10-17T21:23:34.213Z,101625.03
2022-10-17T21:28:37.525Z,101624.72
2022-10-17T21:33:41.358Z,101623.41
2022-10-17T21:38:45.661Z,101625.59
2022-10-17T21:43:54.212Z,101620.78
2022-10-17T21:48:58.923Z,101625.06
2022-10-17T21:54:04.494Z,101608.91
2022-10-17T21:59:09.064Z,101617.00
2022-10-17T22:04:15.841Z,101614.50
2022-10-17T22:09:21.799Z,101607.88
2022-10-17T22:14:25.956Z,101612.72
2022-10-17T22:19:28.807Z,101606.69
2022-10-17T22:24:32.251Z,101603.31
2022-10-17T22:29:34.814Z,101598.28
2022-10-17T22:34:37.586Z,101601.16
2022-10-17T22:39:40.259Z,101610.34
2022-10-17T22:44:43.573Z,101600.81
2022-10-17T22:49:46.624Z,101591.06
2022-10-17T22:54:49.438Z,101596.34
2022-10-17T22:59:52.191Z,101591.88
2022-10-17T23:04:54.940Z,101596.50
2022-10-17T23:09:59.436Z,101593.97
2022-10-17T23:15:02.274Z,101591.81
2022-10-17T23:20:05.497Z,101587.72
2022-10-17T23:25:09.831Z,101589.06
2022-10-17T23:30:12.555Z,101581.38
2022-10-17T23:35:15.555Z,101576.44
2022-10-17T23:40:18.500Z,101572.31
2022-10-17T23:45:21.541Z,101579.81
2022-10-17T23:50:24.560Z,101575.84
2022-10-17T23:55:27.422Z,101572.84
